Terminal Aerodrome Forecast
Issued by NWS St Louis, MO

Home | Current Version | Previous Version | Text Only | Print | Product List | Glossary On
Versions: 1 2 3 4 5 6 7 8 9 10 11 12 13 14 15 16 17 18 19 20 21 22 23 24 25 26 27
147
FTUS43 KLSX 041139
TAFCOU
TAF
KCOU 041139Z 0412/0512 12005KT 3SM -RA BR OVC004
     FM041800 23006KT P6SM OVC008
     FM042000 27007KT P6SM OVC015
     FM042200 28007KT P6SM BKN020
     FM042300 27006KT P6SM SKC
     FM050700 VRB03KT 5SM BR FEW250=

USA.gov is the U.S. government's official web portal to all federal, state and local government web resources and services.